Time;durP1;ratioP1;P1;durP2;ratioP2;P2;SDS_P1;SDS_P2;PMS_P1;PMS_P2;Temp;Humidity;BMP_temperature;BMP_pressure;BME280_temperature;BME280_humidity;BME280_pressure;Samples;Min_cycle;Max_cycle;Signal;HPM_P1;HPM_P2
2022/04/13 00:01:20;;;;;;;6.05;4.20;;;14.30;56.10;;;10.47;72.14;95173.34;5019674;28;20073;-54
2022/04/13 00:03:49;;;;;;;11.10;4.25;;;14.30;56.10;;;10.37;72.67;95179.50;5021323;28;20033;-58
2022/04/13 00:06:15;;;;;;;8.02;4.50;;;14.30;56.30;;;10.36;72.87;95187.75;5001983;28;20582;-56
2022/04/13 00:08:44;;;;;;;5.80;4.60;;;14.20;56.30;;;10.29;73.23;95181.94;5014655;28;20037;-53
2022/04/13 00:11:11;;;;;;;8.48;4.10;;;14.10;56.50;;;10.23;73.37;95177.66;5027180;28;20021;-55
2022/04/13 00:13:37;;;;;;;8.73;4.55;;;14.10;56.60;;;10.22;73.55;95174.22;5033019;28;20025;-57
2022/04/13 00:16:09;;;;;;;9.27;4.90;;;14.10;56.70;;;10.17;73.67;95179.53;5033013;28;20028;-54
2022/04/13 00:18:38;;;;;;;8.20;4.47;;;14.00;56.90;;;10.17;73.47;95188.31;5029932;28;20037;-54
2022/04/13 00:21:04;;;;;;;6.53;5.05;;;14.00;56.90;;;10.10;73.75;95189.69;5034041;28;20388;-53
2022/04/13 00:23:31;;;;;;;7.93;5.38;;;13.90;56.80;;;10.00;74.33;95181.72;5032772;28;20044;-56
2022/04/13 00:25:59;;;;;;;6.05;4.93;;;13.90;56.90;;;9.92;74.64;95194.50;5032732;28;20041;-54
2022/04/13 00:28:38;;;;;;;7.90;4.75;;;13.80;57.10;;;9.84;74.72;95183.59;5033937;28;20400;-52
2022/04/13 00:31:04;;;;;;;8.02;4.93;;;13.80;57.40;;;9.81;74.89;95189.47;5032469;28;20036;-51
2022/04/13 00:33:29;;;;;;;7.40;5.07;;;13.70;57.20;;;9.76;75.11;95189.50;5033976;28;20455;-55
2022/04/13 00:35:56;;;;;;;7.88;4.50;;;13.70;57.40;;;9.75;75.09;95187.91;5016002;28;20037;-56
2022/04/13 00:38:34;;;;;;;8.43;4.93;;;13.70;57.60;;;9.72;75.10;95189.25;5004186;28;20101;-54
2022/04/13 00:41:08;;;;;;;7.47;4.88;;;13.60;57.70;;;9.66;75.16;95185.00;5013881;28;20040;-53
2022/04/13 00:43:34;;;;;;;9.32;5.78;;;13.60;57.80;;;9.55;75.54;95191.38;5013966;28;20242;-57
2022/04/13 00:46:00;;;;;;;9.45;4.82;;;13.50;57.80;;;9.56;75.66;95190.28;5028981;28;20030;-56
2022/04/13 00:48:39;;;;;;;7.38;4.97;;;13.50;58.00;;;9.57;75.56;95194.56;5045087;28;20100;-55
2022/04/13 00:51:06;;;;;;;8.02;4.78;;;13.40;58.20;;;9.50;75.77;95190.31;5013540;28;20041;-56
2022/04/13 00:53:34;;;;;;;7.05;4.45;;;13.40;58.00;;;9.46;75.62;95197.25;5013773;28;20029;-54
2022/04/13 00:56:03;;;;;;;8.13;4.70;;;13.40;58.10;;;9.39;75.69;95190.56;5045068;28;20076;-52
2022/04/13 00:58:33;;;;;;;8.20;4.97;;;13.30;58.10;;;9.31;75.79;95191.09;5029082;28;20044;-53
2022/04/13 01:01:02;;;;;;;7.88;4.93;;;13.30;58.20;;;9.26;76.10;95197.22;5043190;28;20065;-49
2022/04/13 01:03:29;;;;;;;7.80;4.80;;;13.20;58.30;;;9.17;76.35;95190.84;4996370;28;20033;-50
2022/04/13 01:05:59;;;;;;;9.15;5.40;;;13.20;58.50;;;9.19;76.19;95202.00;5044937;28;20032;-49
2022/04/13 01:08:29;;;;;;;8.63;4.40;;;13.10;58.60;;;9.17;76.02;95202.25;5044991;28;20040;-49
2022/04/13 01:11:04;;;;;;;7.07;4.57;;;13.10;58.60;;;9.17;76.26;95201.47;5007345;28;20029;-51
2022/04/13 01:13:30;;;;;;;6.90;4.82;;;13.10;58.80;;;9.11;76.68;95213.16;5011933;28;20112;-54
2022/04/13 01:16:08;;;;;;;6.55;4.55;;;13.00;58.70;;;9.08;76.67;95209.16;5044918;28;20580;-53
2022/04/13 01:18:37;;;;;;;8.88;4.72;;;13.00;59.00;;;9.09;76.61;95209.94;5011842;28;20029;-49
2022/04/13 01:21:05;;;;;;;5.85;4.70;;;13.00;58.90;;;9.06;76.57;95210.47;5011803;28;20049;-50
2022/04/13 01:23:31;;;;;;;7.80;4.78;;;12.90;58.80;;;8.99;76.68;95211.56;5011774;28;20160;-49
2022/04/13 01:25:57;;;;;;;7.55;4.50;;;12.90;58.90;;;8.94;76.97;95216.84;5044744;28;20033;-51
2022/04/13 01:28:28;;;;;;;7.32;4.72;;;12.90;59.00;;;8.98;76.95;95225.09;5012961;28;20045;-49
2022/04/13 01:30:57;;;;;;;11.27;4.85;;;12.80;59.10;;;8.89;77.20;95219.47;5012668;28;20026;-49
2022/04/13 01:33:29;;;;;;;6.32;4.45;;;12.80;59.10;;;8.82;77.30;95208.31;5028038;28;20465;-49
2022/04/13 01:36:02;;;;;;;9.07;4.30;;;12.80;59.20;;;8.83;77.20;95212.56;5047838;28;20025;-49
2022/04/13 01:38:29;;;;;;;6.93;4.07;;;12.80;59.20;;;8.78;77.63;95217.88;5008166;28;20036;-49
2022/04/13 01:40:58;;;;;;;7.47;3.90;;;12.80;59.30;;;8.77;77.64;95214.44;5031236;28;20033;-54
2022/04/13 01:43:25;;;;;;;8.20;4.18;;;12.70;59.40;;;8.75;77.79;95218.41;5031136;28;20174;-51
2022/04/13 01:46:07;;;;;;;5.53;3.90;;;12.70;59.40;;;8.74;77.31;95217.59;5031160;28;20028;-49
2022/04/13 01:48:35;;;;;;;6.55;4.20;;;12.70;59.60;;;8.72;77.73;95218.91;5031288;28;20112;-50
2022/04/13 01:51:04;;;;;;;6.20;4.00;;;12.70;59.50;;;8.68;77.58;95220.47;5030984;28;20131;-49
2022/04/13 01:53:30;;;;;;;7.20;4.20;;;12.60;59.50;;;8.63;77.90;95228.44;5031116;28;20021;-52
2022/04/13 01:56:08;;;;;;;6.50;4.00;;;12.60;59.50;;;8.57;78.03;95235.59;5030988;28;20029;-49
2022/04/13 01:58:37;;;;;;;9.43;4.18;;;12.60;59.60;;;8.51;77.94;95229.44;5014444;28;20025;-54
2022/04/13 02:01:08;;;;;;;7.72;4.38;;;12.50;59.50;;;8.47;78.12;95231.03;5025683;28;20041;-49
2022/04/13 02:03:34;;;;;;;8.02;3.97;;;12.50;59.60;;;8.45;78.01;95230.50;5011309;28;20488;-50
2022/04/13 02:06:00;;;;;;;6.60;3.78;;;12.40;59.60;;;8.42;78.49;95236.31;5012545;28;20088;-50
2022/04/13 02:08:26;;;;;;;8.20;4.10;;;12.40;59.70;;;8.41;79.05;95237.38;5044388;28;20073;-52
2022/04/13 02:11:02;;;;;;;7.22;4.10;;;12.30;59.90;;;8.33;79.11;95233.31;5045832;28;20021;-48
2022/04/13 02:13:27;;;;;;;8.77;4.22;;;12.30;60.10;;;8.33;79.24;95225.34;5014685;28;20035;-49
2022/04/13 02:15:53;;;;;;;7.95;4.20;;;12.30;60.10;;;8.30;79.24;95222.44;5031099;28;20026;-49
2022/04/13 02:18:22;;;;;;;11.30;5.03;;;12.30;60.20;;;8.29;79.48;95226.16;5014509;28;20022;-49
2022/04/13 02:20:58;;;;;;;11.73;5.55;;;12.20;60.30;;;8.26;79.59;95229.31;5031842;28;20068;-49
2022/04/13 02:23:27;;;;;;;10.00;4.88;;;12.20;60.60;;;8.22;79.85;95217.63;5032411;28;20036;-49
2022/04/13 02:25:52;;;;;;;9.68;4.78;;;12.20;60.60;;;8.21;79.80;95231.94;5032083;28;20096;-50
2022/04/13 02:28:21;;;;;;;7.53;4.50;;;12.10;60.60;;;8.21;79.86;95223.97;5031039;28;20109;-51
2022/04/13 02:30:52;;;;;;;8.32;4.75;;;12.10;60.80;;;8.21;79.95;95223.97;5031970;28;20072;-51
2022/04/13 02:33:20;;;;;;;7.82;4.50;;;12.10;60.90;;;8.16;79.88;95222.09;5031793;28;20029;-51
2022/04/13 02:35:45;;;;;;;8.35;4.63;;;12.10;60.90;;;8.18;79.90;95225.31;5030698;28;20029;-54
2022/04/13 02:38:13;;;;;;;10.15;4.43;;;12.10;60.90;;;8.13;79.95;95222.63;5030819;28;20045;-50
2022/04/13 02:40:43;;;;;;;9.52;4.78;;;12.10;61.00;;;8.10;80.30;95221.28;5030660;28;20036;-51
2022/04/13 02:43:10;;;;;;;8.27;5.00;;;12.10;61.30;;;8.10;80.29;95225.78;5031816;28;20025;-49
2022/04/13 02:45:36;;;;;;;10.88;4.68;;;12.10;61.30;;;8.07;80.70;95229.75;5030642;28;20113;-50
2022/04/13 02:48:08;;;;;;;9.98;5.20;;;12.10;61.50;;;8.17;80.18;95234.31;5030490;28;20105;-50
2022/04/13 02:50:37;;;;;;;10.15;4.97;;;12.10;61.70;;;8.17;79.79;95238.81;5031807;28;20079;-51
2022/04/13 02:53:08;;;;;;;8.43;4.07;;;12.00;61.40;;;8.10;79.83;95237.19;5031879;28;20471;-49
2022/04/13 02:55:37;;;;;;;9.18;4.93;;;12.00;61.40;;;7.99;80.20;95235.56;5030608;28;20031;-51
2022/04/13 02:58:03;;;;;;;8.98;4.95;;;12.00;61.40;;;7.94;80.05;95232.84;5031780;28;20034;-49
2022/04/13 03:00:31;;;;;;;9.98;4.60;;;11.90;61.20;;;7.90;79.94;95245.03;5030085;28;20060;-50
2022/04/13 03:03:03;;;;;;;11.80;5.25;;;11.90;61.40;;;7.82;80.50;95240.19;5011978;28;20022;-51
2022/04/13 03:05:30;;;;;;;8.40;4.18;;;11.80;61.50;;;7.76;80.67;95242.00;5011956;28;20525;-53
2022/04/13 03:08:07;;;;;;;11.30;4.10;;;11.80;61.40;;;7.68;80.47;95239.84;5011900;28;20034;-50
2022/04/13 03:10:35;;;;;;;8.70;4.22;;;11.70;61.60;;;7.64;80.92;95239.53;5012575;28;20034;-50
2022/04/13 03:13:31;;;;;;;9.68;4.50;;;11.70;61.70;;;7.58;81.19;95234.47;5015428;28;20409;-51
2022/04/13 03:15:57;;;;;;;9.00;3.85;;;11.70;61.90;;;7.56;81.29;95245.31;5046664;28;20061;-49
2022/04/13 03:18:26;;;;;;;11.70;4.43;;;11.60;61.70;;;7.48;81.90;95229.88;5014418;28;20030;-49
2022/04/13 03:20:51;;;;;;;7.70;4.28;;;11.60;62.10;;;7.46;81.91;95234.66;5047252;28;20025;-56
2022/04/13 03:23:17;;;;;;;10.48;4.03;;;11.50;62.10;;;7.44;81.56;95231.44;5015046;28;20076;-53
2022/04/13 03:25:46;;;;;;;12.02;5.00;;;11.50;62.10;;;7.41;82.07;95234.59;5015397;28;20030;-51
2022/04/13 03:28:11;;;;;;;8.95;4.82;;;11.40;62.30;;;7.33;82.15;95229.75;5046927;28;20088;-51
2022/04/13 03:30:37;;;;;;;11.82;5.18;;;11.40;62.50;;;7.33;82.27;95241.16;5015180;28;20033;-48
2022/04/13 03:33:03;;;;;;;10.38;4.97;;;11.40;62.50;;;7.26;82.57;95229.97;5046784;28;20030;-50
2022/04/13 03:35:29;;;;;;;10.25;5.18;;;11.30;62.50;;;7.30;82.31;95243.50;5047245;28;20033;-50
2022/04/13 03:37:55;;;;;;;7.53;4.90;;;11.30;62.70;;;7.26;82.49;95239.75;5014918;28;20510;-49
2022/04/13 03:40:23;;;;;;;9.35;5.15;;;11.30;62.70;;;7.22;82.38;95233.38;5014984;28;20100;-51
2022/04/13 03:42:52;;;;;;;7.88;4.95;;;11.30;62.80;;;7.20;82.79;95236.25;5011400;28;20039;-49
2022/04/13 03:45:18;;;;;;;8.68;5.18;;;11.20;62.80;;;7.17;82.79;95234.91;5014988;28;20025;-49
2022/04/13 03:47:46;;;;;;;8.55;4.70;;;11.20;62.90;;;7.12;82.61;95226.16;5014815;28;20059;-51
2022/04/13 03:50:12;;;;;;;7.75;4.40;;;11.20;63.00;;;7.11;82.84;95232.47;5013689;28;20113;-51
2022/04/13 03:52:50;;;;;;;11.32;5.28;;;11.10;63.00;;;7.11;82.72;95240.41;5014788;28;20110;-48
2022/04/13 03:55:28;;;;;;;14.73;4.88;;;11.20;63.30;;;7.10;83.51;95236.19;5046686;28;20029;-49
2022/04/13 03:57:54;;;;;;;9.25;4.85;;;11.10;63.40;;;7.09;83.35;95230.09;5014587;28;20034;-49
2022/04/13 04:00:20;;;;;;;10.27;4.85;;;11.10;63.40;;;7.09;82.84;95239.88;5046263;28;20562;-53
2022/04/13 04:02:45;;;;;;;9.27;4.90;;;11.10;63.40;;;7.07;82.72;95231.38;5019909;28;20492;-50
2022/04/13 04:05:12;;;;;;;9.63;5.38;;;11.10;63.30;;;7.03;82.75;95235.59;5033261;28;20484;-50
2022/04/13 04:07:39;;;;;;;7.93;5.25;;;11.10;63.40;;;6.93;83.15;95229.16;5016874;28;20030;-51
2022/04/13 04:10:10;;;;;;;8.07;5.05;;;11.00;63.30;;;6.91;83.10;95231.22;5016253;28;20492;-51
2022/04/13 04:12:41;;;;;;;9.27;5.55;;;11.00;63.50;;;6.91;83.23;95235.72;5012408;28;20038;-53
2022/04/13 04:15:09;;;;;;;8.70;4.75;;;11.00;63.70;;;6.90;83.40;95231.50;5046200;28;20025;-53
2022/04/13 04:17:38;;;;;;;12.90;4.80;;;11.00;63.60;;;6.91;83.01;95230.44;5045997;28;20504;-52
2022/04/13 04:20:08;;;;;;;9.55;5.20;;;11.00;63.70;;;6.89;83.13;95243.94;5029430;28;20073;-51
2022/04/13 04:22:36;;;;;;;7.32;4.93;;;10.90;64.50;;;6.87;83.62;95235.44;5013546;28;20113;-49
2022/04/13 04:25:11;;;;;;;8.77;4.97;;;10.90;63.80;;;6.80;83.49;95229.53;5012851;28;20029;-50
2022/04/13 04:27:37;;;;;;;10.63;4.47;;;10.90;64.00;;;6.86;83.51;95236.50;5046059;28;20022;-49
2022/04/13 04:30:12;;;;;;;8.82;4.82;;;10.90;64.00;;;6.87;83.25;95238.09;5045630;28;20037;-51
2022/04/13 04:32:38;;;;;;;8.73;4.57;;;10.90;64.10;;;6.86;83.24;95240.97;5046063;28;20033;-49
2022/04/13 04:35:08;;;;;;;7.63;4.07;;;10.90;64.00;;;6.80;83.27;95240.13;5045907;28;20485;-54
2022/04/13 04:37:41;;;;;;;7.32;5.00;;;10.90;64.20;;;6.84;82.92;95249.16;5045710;28;20393;-50
2022/04/13 04:40:10;;;;;;;9.40;4.55;;;10.90;64.20;;;6.78;83.54;95246.72;5045592;28;20041;-49
2022/04/13 04:42:47;;;;;;;7.88;4.85;;;10.80;64.00;;;6.80;83.36;95253.38;5045625;28;20397;-50
2022/04/13 04:45:19;;;;;;;9.27;4.90;;;10.80;64.20;;;6.83;82.98;95254.69;5045556;28;20120;-50
2022/04/13 04:47:46;;;;;;;7.43;4.82;;;10.90;64.00;;;6.72;82.90;95254.59;5014082;28;20608;-49
2022/04/13 04:50:12;;;;;;;8.52;4.90;;;10.80;63.90;;;6.65;83.36;95247.91;5028687;28;20034;-50
2022/04/13 04:52:42;;;;;;;8.85;4.57;;;10.80;64.00;;;6.67;83.40;95249.22;5028785;28;20034;-48
2022/04/13 04:55:13;;;;;;;8.40;4.82;;;10.80;64.10;;;6.67;83.48;95253.72;5045633;28;20032;-50
2022/04/13 04:57:46;;;;;;;9.07;4.80;;;10.80;64.10;;;6.69;83.47;95260.38;5045113;28;21568;-49
2022/04/13 05:00:21;;;;;;;5.95;4.28;;;10.80;64.20;;;6.68;83.35;95263.28;5044977;28;20112;-51
2022/04/13 05:02:49;;;;;;;12.35;5.28;;;10.80;64.20;;;6.70;83.47;95258.53;5035001;28;20026;-51
2022/04/13 05:05:15;;;;;;;6.97;5.30;;;10.80;64.10;;;6.73;83.61;95255.38;5015462;28;20042;-54
2022/04/13 05:07:42;;;;;;;8.95;5.05;;;10.80;64.20;;;6.82;83.59;95255.75;5031947;28;20033;-53
2022/04/13 05:10:09;;;;;;;8.23;4.60;;;10.90;64.20;;;6.87;83.72;95261.13;5014851;28;20030;-49
2022/04/13 05:12:44;;;;;;;9.80;5.60;;;10.90;64.30;;;6.93;83.82;95266.22;5012792;28;20084;-50
2022/04/13 05:15:11;;;;;;;11.15;4.63;;;11.00;64.50;;;7.01;83.77;95278.19;5028194;28;20104;-50
2022/04/13 05:17:37;;;;;;;6.93;4.50;;;11.10;64.40;;;7.10;83.53;95268.75;5028431;28;20033;-50
2022/04/13 05:20:05;;;;;;;7.93;4.65;;;11.20;64.40;;;7.23;83.09;95274.72;5024507;28;20025;-50
2022/04/13 05:22:35;;;;;;;7.25;5.57;;;11.30;64.40;;;7.33;83.05;95277.44;5023805;28;20104;-49
2022/04/13 05:25:06;;;;;;;8.27;4.63;;;11.40;64.50;;;7.49;82.82;95275.72;4994026;28;20054;-53
2022/04/13 05:27:39;;;;;;;7.85;5.22;;;11.50;64.40;;;7.65;82.54;95278.28;5044696;28;20026;-52
2022/04/13 05:30:08;;;;;;;6.38;4.97;;;11.70;64.50;;;7.84;82.25;95288.50;5009542;28;20102;-49
2022/04/13 05:32:58;;;;;;;9.70;4.78;;;11.80;64.40;;;7.97;81.64;95285.41;5012853;28;20045;-52
2022/04/13 05:35:28;;;;;;;13.07;5.95;;;12.00;64.40;;;8.12;81.39;95282.06;4997347;28;20021;-53
2022/04/13 05:37:55;;;;;;;8.63;5.10;;;12.10;64.20;;;8.33;80.74;95297.00;5011049;28;20025;-49
2022/04/13 05:40:23;;;;;;;7.47;5.13;;;12.30;64.00;;;8.49;80.20;95290.00;5019129;28;20113;-51
2022/04/13 05:43:11;;;;;;;6.68;4.47;;;12.50;63.80;;;8.69;79.63;95293.78;5013826;28;20026;-49
2022/04/13 05:45:37;;;;;;;9.48;5.15;;;12.70;63.60;;;8.86;79.23;95296.22;5026416;28;20044;-53
2022/04/13 05:48:05;;;;;;;7.10;4.70;;;12.90;63.30;;;9.03;78.58;95296.84;5014832;28;20032;-51
2022/04/13 05:50:30;;;;;;;11.55;4.90;;;13.10;63.00;;;9.20;77.99;95291.28;5018443;28;20515;-52
2022/04/13 05:52:56;;;;;;;7.03;4.43;;;13.30;62.70;;;9.45;77.49;95303.84;4988017;28;20049;-52
2022/04/13 05:55:22;;;;;;;7.03;4.18;;;13.50;62.50;;;9.64;77.37;95307.56;5014865;28;20022;-51
2022/04/13 05:57:48;;;;;;;10.75;4.25;;;13.80;62.30;;;9.89;76.34;95303.31;4997164;28;20029;-51
2022/04/13 06:00:17;;;;;;;7.57;4.13;;;14.00;61.90;;;10.11;75.75;95298.53;5026022;28;20073;-50
2022/04/13 06:02:46;;;;;;;8.10;4.07;;;14.30;61.50;;;10.41;75.33;95305.69;5009654;28;20030;-52
2022/04/13 06:05:12;;;;;;;6.25;3.58;;;14.60;61.20;;;10.67;73.98;95299.50;5022546;28;20043;-54
2022/04/13 06:07:40;;;;;;;8.90;3.92;;;14.90;60.70;;;10.96;73.32;95297.78;5009559;28;20029;-51
2022/04/13 06:10:06;;;;;;;6.60;3.45;;;15.20;60.30;;;11.29;72.75;95304.28;5020715;28;20369;-61
2022/04/13 06:12:33;;;;;;;12.93;4.50;;;15.50;59.90;;;11.56;71.69;95301.19;5026181;28;20552;-54
2022/04/13 06:15:03;;;;;;;16.67;4.10;;;15.80;59.50;;;11.94;69.41;95300.66;5016166;28;20112;-50
2022/04/13 06:17:36;;;;;;;13.55;4.03;;;16.20;59.10;;;12.27;68.59;95315.06;5003130;28;20053;-51
2022/04/13 06:20:14;;;;;;;6.80;3.05;;;16.60;58.70;;;12.59;66.53;95313.69;5030039;28;20470;-53
2022/04/13 06:22:42;;;;;;;4.45;2.90;;;16.90;58.00;;;12.89;63.32;95315.25;5020012;28;20074;-50
2022/04/13 06:25:10;;;;;;;7.20;2.83;;;17.30;57.40;;;13.24;63.05;95322.03;5008664;28;20025;-53
2022/04/13 06:27:49;;;;;;;8.35;3.33;;;17.70;56.70;;;13.63;61.36;95329.00;5014637;28;20091;-49
2022/04/13 06:30:18;;;;;;;4.38;2.70;;;18.10;55.90;;;13.97;59.77;95325.31;5030972;28;20476;-52
2022/04/13 06:32:45;;;;;;;8.70;2.75;;;18.60;55.20;;;14.17;57.70;95329.56;5030761;28;20037;-57
2022/04/13 06:35:15;;;;;;;5.35;2.97;;;18.90;54.30;;;14.44;56.54;95331.50;5030739;28;20460;-57
2022/04/13 06:37:43;;;;;;;9.13;4.00;;;19.20;53.30;;;14.68;56.20;95334.84;4986075;28;20034;-54
2022/04/13 06:40:10;;;;;;;10.88;3.58;;;19.60;52.60;;;14.86;54.59;95337.75;5005447;28;20088;-49
2022/04/13 06:42:37;;;;;;;5.85;3.08;;;19.90;51.60;;;14.94;54.06;95345.09;5012117;28;20436;-53
2022/04/13 06:45:12;;;;;;;5.43;3.28;;;20.30;50.80;;;15.14;53.33;95344.72;5012245;28;20030;-52
2022/04/13 06:47:48;;;;;;;6.70;3.17;;;20.50;49.80;;;15.47;52.49;95347.25;5030880;28;20120;-49
2022/04/13 06:50:32;;;;;;;8.75;3.05;;;20.80;49.00;;;15.90;51.50;95355.72;5046847;28;20157;-50
2022/04/13 06:52:57;;;;;;;6.32;3.22;;;21.20;48.20;;;16.19;51.95;95352.63;5015957;28;20029;-50
2022/04/13 06:55:26;;;;;;;5.82;2.88;;;21.50;48.10;;;16.42;49.95;95357.97;5015753;28;20413;-52
2022/04/13 06:57:55;;;;;;;5.15;2.63;;;21.80;47.30;;;16.66;49.11;95354.97;5014856;28;20037;-52
2022/04/13 07:00:36;;;;;;;4.32;2.80;;;22.00;46.60;;;16.99;48.35;95368.16;5015493;28;20497;-53
2022/04/13 07:03:02;;;;;;;5.20;2.50;;;22.30;45.60;;;17.19;47.41;95364.09;5073227;22;20045;-58
2022/04/13 07:05:31;;;;;;;5.53;3.00;;;22.60;45.40;;;17.28;46.99;95364.94;5034365;28;20025;-58
2022/04/13 07:07:59;;;;;;;4.45;2.38;;;22.90;44.30;;;17.41;46.12;95371.28;5050750;28;20100;-58
2022/04/13 07:10:28;;;;;;;4.22;2.63;;;23.10;43.80;;;17.57;46.16;95372.44;5067216;28;20462;-58
2022/04/13 07:13:03;;;;;;;8.77;2.95;;;23.30;43.70;;;17.82;45.46;95373.63;5083179;28;20025;-59
2022/04/13 07:15:35;;;;;;;7.88;3.30;;;23.60;42.20;;;18.03;45.36;95376.50;5055612;28;20033;-59
2022/04/13 07:18:07;;;;;;;4.68;3.05;;;23.80;42.00;;;18.23;45.19;95375.06;5054979;28;20456;-59
2022/04/13 07:20:42;;;;;;;10.23;3.60;;;24.10;41.30;;;18.46;44.64;95375.69;5045159;28;20033;-59
2022/04/13 07:23:13;;;;;;;5.50;3.20;;;24.30;40.70;;;18.69;44.25;95370.88;5054065;28;20037;-59
2022/04/13 07:25:39;;;;;;;6.47;3.35;;;24.50;40.50;;;18.93;43.05;95367.69;5035027;28;20025;-59
2022/04/13 07:28:07;;;;;;;7.10;3.05;;;24.70;40.00;;;19.04;43.51;95360.00;5035372;28;20025;-58
2022/04/13 07:30:35;;;;;;;7.07;4.60;;;24.80;39.40;;;19.18;43.09;95355.19;5034924;28;20515;-57
2022/04/13 07:33:05;;;;;;;6.35;4.22;;;25.00;39.10;;;19.38;42.95;95362.53;5033958;28;20033;-55
2022/04/13 07:35:37;;;;;;;6.00;3.72;;;25.30;38.60;;;19.49;42.66;95367.56;5033897;28;20083;-57
2022/04/13 07:38:05;;;;;;;6.53;4.35;;;25.50;38.00;;;19.68;41.99;95373.41;5034896;28;20029;-59
2022/04/13 07:40:34;;;;;;;7.53;3.88;;;25.80;37.60;;;19.70;41.97;95368.44;5034724;28;20535;-56
2022/04/13 07:43:07;;;;;;;6.78;4.07;;;26.00;37.00;;;19.86;41.59;95376.75;5034792;28;20037;-59
2022/04/13 07:45:32;;;;;;;6.20;3.92;;;26.10;36.70;;;20.14;40.61;95377.03;5033348;28;20033;-59
2022/04/13 07:48:08;;;;;;;5.90;3.92;;;26.20;36.10;;;20.33;39.90;95377.34;5033362;28;20052;-59
2022/04/13 07:50:44;;;;;;;7.35;4.18;;;26.40;35.30;;;20.49;40.41;95371.31;5033463;28;20029;-59
2022/04/13 07:53:13;;;;;;;7.57;4.40;;;26.40;35.10;;;20.47;40.34;95370.88;5033398;28;20033;-59
2022/04/13 07:55:39;;;;;;;7.57;4.15;;;26.50;35.00;;;20.64;39.74;95378.06;5034514;28;20032;-59
2022/04/13 07:58:05;;;;;;;6.38;4.57;;;26.60;34.80;;;20.92;40.13;95376.31;5032205;28;20030;-58
2022/04/13 08:00:34;;;;;;;7.80;4.50;;;26.80;34.70;;;21.24;38.89;95377.38;5034398;28;20124;-59
2022/04/13 08:03:04;;;;;;;6.38;4.40;;;27.00;34.30;;;21.45;38.19;95382.72;5032762;28;20087;-57
2022/04/13 08:05:40;;;;;;;7.05;4.32;;;27.30;34.00;;;21.18;38.65;95370.59;5059151;28;20447;-58
2022/04/13 08:08:08;;;;;;;8.32;4.95;;;27.40;33.50;;;21.43;38.54;95376.06;5067849;28;20083;-59
2022/04/13 08:10:36;;;;;;;10.23;4.90;;;27.60;33.30;;;21.54;38.35;95371.00;5054453;28;20025;-58
2022/04/13 08:13:08;;;;;;;7.30;4.80;;;27.80;33.60;;;21.77;38.30;95368.59;5034184;28;20036;-59
2022/04/13 08:15:39;;;;;;;9.43;5.30;;;28.00;32.70;;;22.00;37.62;95374.31;5034295;28;20037;-59
2022/04/13 08:18:05;;;;;;;8.73;4.95;;;28.20;32.50;;;22.17;37.45;95382.22;5034129;28;20029;-59
2022/04/13 08:20:31;;;;;;;10.32;5.60;;;28.50;32.40;;;22.40;36.61;95387.91;5033973;28;20108;-58
2022/04/13 08:22:59;;;;;;;9.50;5.78;;;28.70;31.90;;;22.63;35.86;95380.03;5033842;28;20112;-59
2022/04/13 08:25:37;;;;;;;7.57;4.97;;;29.00;31.90;;;22.93;35.84;95385.84;5032699;28;20484;-60
2022/04/13 08:28:08;;;;;;;7.35;5.43;;;29.30;30.80;;;23.08;35.66;95393.25;5034032;28;20079;-59
2022/04/13 08:30:43;;;;;;;6.93;5.30;;;29.60;30.70;;;22.84;36.13;95393.38;5033039;28;20511;-60
2022/04/13 08:33:09;;;;;;;9.07;4.88;;;29.70;30.00;;;22.90;35.75;95399.34;5033778;28;20108;-59
2022/04/13 08:35:35;;;;;;;6.03;5.43;;;29.80;29.90;;;23.03;35.68;95395.44;5033952;28;20079;-59
2022/04/13 08:38:04;;;;;;;6.78;4.90;;;29.90;29.60;;;23.46;34.52;95393.81;5043059;28;20482;-59
2022/04/13 08:40:56;;;;;;;11.05;5.50;;;30.10;29.40;;;23.59;33.96;95394.50;5034572;28;20092;-59
2022/04/13 08:43:56;;;;;;;9.85;5.60;;;30.20;29.20;;;23.67;33.30;95391.59;5032541;28;20564;-59
2022/04/13 08:46:25;;;;;;;6.75;4.88;;;30.30;29.00;;;23.70;33.26;95387.41;5011181;28;20560;-59
2022/04/13 08:49:00;;;;;;;7.45;5.18;;;30.50;28.70;;;23.64;32.52;95394.22;5024837;28;20067;-57
2022/04/13 08:51:33;;;;;;;7.82;4.95;;;30.60;28.20;;;23.75;32.40;95387.13;5031635;28;20032;-59
2022/04/13 08:54:11;;;;;;;7.82;5.40;;;30.70;28.00;;;23.61;33.30;95390.28;5045901;28;20075;-59
2022/04/13 08:56:39;;;;;;;7.90;5.40;;;30.70;27.70;;;23.94;31.65;95387.19;5037214;28;20477;-59
2022/04/13 08:59:15;;;;;;;9.63;4.88;;;30.80;27.50;;;23.73;31.58;95389.44;5055380;28;20071;-59
2022/04/13 09:01:59;;;;;;;7.82;4.68;;;30.90;27.00;;;23.75;31.02;95387.13;5046874;28;20168;-58
2022/04/13 09:04:30;;;;;;;8.63;4.63;;;31.10;26.70;;;24.15;31.87;95392.28;5033239;28;20025;-57
2022/04/13 09:07:02;;;;;;;8.57;4.70;;;31.20;26.70;;;24.28;30.24;95398.41;5064419;28;20021;-59
2022/04/13 09:09:49;;;;;;;7.30;4.73;;;31.40;26.30;;;24.75;30.38;95391.97;5031983;28;20049;-59
2022/04/13 09:12:18;;;;;;;8.55;5.00;;;31.60;26.20;;;24.85;29.52;95390.59;5032953;28;20288;-59
2022/04/13 09:14:45;;;;;;;8.13;4.97;;;31.90;26.00;;;25.13;29.80;95395.81;5033109;28;20025;-59
2022/04/13 09:17:18;;;;;;;7.72;5.18;;;32.00;25.90;;;25.09;28.77;95394.94;5031878;28;20022;-59
2022/04/13 09:20:01;;;;;;;6.95;5.30;;;32.20;25.20;;;25.35;29.02;95392.31;5029918;28;20071;-58
2022/04/13 09:22:34;;;;;;;9.85;5.28;;;32.30;25.10;;;25.66;28.48;95395.91;5028909;28;20033;-59
2022/04/13 09:25:01;;;;;;;8.30;4.93;;;32.50;25.10;;;25.94;28.54;95386.63;5037150;28;20117;-59
2022/04/13 09:27:32;;;;;;;10.68;5.13;;;32.70;25.40;;;25.89;27.86;95386.94;5032941;28;20025;-59
2022/04/13 09:30:09;;;;;;;6.20;5.30;;;32.90;24.50;;;25.99;28.03;95386.31;5039343;28;20104;-59
2022/04/13 09:32:35;;;;;;;7.50;4.88;;;33.00;24.40;;;26.29;28.03;95384.38;5032730;28;20080;-58
2022/04/13 09:35:04;;;;;;;9.13;5.35;;;33.20;24.40;;;26.56;27.43;95389.03;5038811;28;20029;-59
2022/04/13 09:37:34;;;;;;;7.97;5.20;;;33.30;24.30;;;26.85;26.77;95401.06;5038260;28;20087;-60
2022/04/13 09:40:00;;;;;;;9.18;6.32;;;33.60;24.00;;;27.04;27.11;95398.13;5036210;28;20480;-60
2022/04/13 09:42:38;;;;;;;11.57;5.88;;;33.70;24.00;;;27.02;28.09;95394.22;5030216;28;20618;-60
2022/04/13 09:45:05;;;;;;;9.35;6.53;;;33.80;24.00;;;26.70;28.71;95394.63;5045678;28;20480;-59
2022/04/13 09:47:37;;;;;;;8.70;5.68;;;34.00;23.90;;;26.75;28.32;95395.09;5034618;28;20075;-59
2022/04/13 09:50:03;;;;;;;11.15;6.72;;;34.00;23.70;;;26.53;27.96;95393.28;5005867;28;20049;-58
2022/04/13 09:52:39;;;;;;;11.95;6.05;;;34.10;23.60;;;26.63;28.38;95384.41;5037237;28;20036;-58
2022/04/13 09:55:09;;;;;;;7.78;5.72;;;34.10;23.40;;;26.59;27.76;95378.13;5030203;28;20499;-58
2022/04/13 09:57:44;;;;;;;10.25;6.07;;;34.10;23.30;;;26.80;27.69;95379.56;5028545;28;20048;-58
2022/04/13 10:00:11;;;;;;;12.05;6.47;;;34.10;23.10;;;27.07;28.27;95380.19;5033739;28;20033;-60
2022/04/13 10:02:40;;;;;;;8.50;6.10;;;34.20;23.40;;;27.57;27.42;95377.94;5034952;28;20072;-58
2022/04/13 10:05:20;;;;;;;8.15;6.47;;;34.40;23.40;;;27.76;26.84;95377.69;5028326;28;20110;-59
2022/04/13 10:08:08;;;;;;;11.18;6.82;;;34.70;23.30;;;27.99;26.47;95379.44;5030622;28;20476;-59
2022/04/13 10:10:38;;;;;;;10.25;6.35;;;35.00;23.20;;;28.27;26.29;95362.38;5034212;28;20036;-60
2022/04/13 10:13:03;;;;;;;9.60;6.15;;;35.10;22.90;;;28.11;26.30;95371.69;5062939;28;20030;-60
2022/04/13 10:15:29;;;;;;;9.20;6.32;;;35.20;22.70;;;28.33;26.12;95363.56;5045309;28;20036;-60
2022/04/13 10:18:00;;;;;;;9.38;6.40;;;35.40;22.70;;;28.38;26.46;95366.72;5028747;28;20072;-59
2022/04/13 10:20:50;;;;;;;10.83;7.00;;;35.50;22.60;;;28.65;25.93;95355.53;5036040;28;20061;-60
2022/04/13 10:23:16;;;;;;;10.65;6.30;;;35.80;22.50;;;28.85;26.51;95369.66;5042340;28;20084;-59
2022/04/13 10:25:43;;;;;;;9.95;6.70;;;36.00;22.60;;;28.89;25.91;95361.44;5044985;28;20098;-60
2022/04/13 10:28:12;;;;;;;9.90;6.80;;;36.20;22.40;;;29.03;25.88;95356.81;5056006;28;20479;-60
2022/04/13 10:30:43;;;;;;;10.32;6.85;;;36.40;22.30;;;29.08;25.57;95352.88;5055385;28;20025;-60
2022/04/13 10:33:11;;;;;;;12.00;6.38;;;36.60;22.20;;;28.78;26.20;95355.94;5054874;28;20034;-60
2022/04/13 10:35:45;;;;;;;13.15;6.18;;;36.30;22.30;;;28.32;26.59;95354.56;4972872;28;20040;-60